Latest Observation

114 Stations

10 Minute Data
as of 9/3/26 9:26 AM PDT
Station Date Time Temp (°F) RH (%) Dew Pt (°F) Wind Spd (mph) Wind Dir (°) Wind Gust (mph) Wind Gst Dir (°) Latest Rain (In) Soil Moist (%) Soil Temp (°F) Daily Rain (In) Daily Min Temp (°F) Daily Max Temp (°F) Daily Max Wind (mph)
Hobart Mills 9/3/26 0920 50.8   2.2 50   11 32.9   3.0 3.6   0.6 SW | 230 8.7   2.9 WSW | 248 0.00 7.5   0.0 63.3   1.0 0.00 48.8   4.1 51.1   2.1 12.5   3.0
Prosser Dam 9/3/26 0920 53.9   3.2 47   11 33.9   2.5 5.9   0.3 S | 180 16.5   6.5 S | 178 0.00 5.2   0.1 61.2   1.0 0.00 50.1   8.6 54.5   3.7 16.5   6.5
West Incline Village 9/3/26 0920 47.0   2.3 49   18 29.0   5.6 2.5   3.5 WSW | 258 6.8   8.7 W | 270 0.00 11.7   0.1 57.2   0.8 0.00 44.5   4.1 47.2   2.1 10.1   5.5
Incline Village (Fairview Blvd) 9/3/26 0920 50.3   4.1 49   18 31.9   4.2 2.9   0.4 WNW | 282 7.0   2.4 NW | 324 0.00 7.6   0.1 70.5   1.0 0.00 46.4   3.6 50.8   4.5 12.4   7.2
Incline Village (Diamond Peak) 9/3/26 0920 48.0 47 28.5 5.9 WNW | 290 16.5 NW | 323 0.00 2.5 59.4 0.00 43.6 48.3 16.5
Incline Village (Mill Creek) 9/3/26 0920 52.9 42 30.4 3.7 WSW | 250 14.7 WNW | 286 0.00 2.9 62.0 0.00 49.4 53.5 18.9
Incline Village (Lakeshore Blvd) 9/3/26 0920 54.2   3.2 45   21 33.1   6.7 1.9   4.4 W | 267 7.5   3.6 W | 274 0.00 27.2   2.9 57.6   0.2 0.00 50.5   3.0 54.5   2.7 11.4   5.1
Glenbrook 9/3/26 0920 54.6   3.6 51   9 36.7   0.6 9.6   0.8 WSW | 240 16.5   0.5 WSW | 247 0.00 43.2   0.1 58.5   0.6 0.00 51.5   2.8 55.1   2.0 18.1   8.1
Zephyr Cove 9/3/26 0920 54.7   5.4 41   16 31.5   3.4 1.4   0.1 SSE | 159 5.7   0.7 SSE | 167 0.00 2.8   0.1 60.5   1.1 0.00 47.8   2.6 55.1   5.5 7.6   1.7
Kingsbury Grade 9/3/26 0920 53.9   6.6 40   23 30.2   5.1 2.8   1.4 WSW | 252 12.2   7.2 WSW | 248 0.00 2.3   0.1 63.4   2.1 0.00 44.2   2.8 54.5   7.1 12.2   1.9
South Daggett Pass (Ridge) 9/3/26 0920 48.3   5.5 44   28 27.5   7.0 3.9   1.2 W | 280 14.5   1.6 WNW | 286 0.00 2.2   0.0 62.7   1.2 0.00 40.6   2.1 48.6   4.6 17.5   5.6
Palomino Valley 9/3/26 0920 63.9   7.2 31   9 32.9   0.3 9.4   6.9 SSW | 210 14.8   10.2 SSW | 208 0.00 6.5   0.1 73.2   2.8 0.00 51.7   2.4 64.8   7.9 16.5   13.3
East Cold Springs 9/3/26 0920 58.3   6.5 39   15 33.6   2.2 14.2   8.3 WSW | 244 22.5   11.9 WSW | 237 0.00 1.5   0.0 69.1   1.4 0.00 51.9   5.3 60.0   7.8 28.9   7.0
Peavine 9/3/26 0920 56.4 39 32.1 21.8 SW | 225 33.7 SSW | 200 0.00 4.3 65.9 0.00 51.2 57.2 46.8
West Verdi Peak 9/3/26 1020 51.1   3.9 46   17 31.1   4.1 2.3   1.5 SW | 227 6.7   7.5 S | 170 0.00 6.5   0.1 67.5   1.0 0.00 47.9   5.1 51.5   3.9 16.0   1.9
West Verdi 9/3/26 0920 58.2   4.6 41   12 34.4   2.3 11.2   6.1 S | 184 27.0   11.5 S | 174 0.00 6.2   0.0 77.9   1.6 0.00 54.8   4.6 59.2   5.3 31.7   5.0
South Verdi 9/3/26 0920 56.1   3.3 43   8 33.9   1.2 24.9   6.6 SW | 215 33.9   5.8 SSW | 203 0.00 10.3   0.1 67.3   0.9 0.00 53.4   4.2 56.9   4.0 36.9   5.7
Northwest Reno 9/3/26 0920 58.7   4.6 35   15 30.8   4.7 7.7   11.9 ESE | 110 11.7   13.8 E | 98 0.00 24.8   0.2 73.5   2.1 0.00 55.2   3.2 59.2   5.0 50.6   13.5
North Lawton 8/28/26 1620 63.8   17.1 74   52 55.4   16.5 1.5   11.6 ESE | 121 5.1   19.0 SE | 124 0.00 - 78.2   0.0 0.05 59.2   7.5 71.9   13.3 20.4   4.6
West Reno (Mogul) 9/3/26 0920 60.5   6.3 39   11 35.2   0.5 9.8   7.3 WSW | 254 15.5   5.6 SW | 233 0.00 19.5   0.1 77.6   1.6 0.00 55.3   4.2 61.4   6.6 31.2   11.8
Caughlin (Hunter Lake Trail) 9/3/26 0910 57.8   5.4 35   15 30.5   4.0 2.6   1.0 WNW | 293 6.2   1.4 NW | 326 0.00 16.3   0.3 71.6   2.0 0.00 55.0   5.0 58.6   4.7 31.0   11.4
ArrowCreek 9/3/26 0920 59.6   6.2 35   13 31.9   2.1 4.8   0.8 NNE | 27 7.9   3.4 N | 0 0.00 - 32.0   0.0 0.00 53.2   2.7 59.8   4.9 19.8   6.7
Tracy 9/3/26 0920 64.2   5.5 29   11 31.1   2.9 3.2   0.1 WNW | 295 7.0   1.2 WNW | 300 0.00 15.8   0.1 75.6   2.7 0.00 58.3   2.1 64.9   3.3 18.0   3.2
Virginia Highlands 9/3/26 0920 57.7   6.8 37   16 31.9   2.5 8.0   5.8 SSW | 202 21.7   12.3 S | 169 0.00 7.9   0.1 73.0   1.7 0.00 49.2   0.5 58.4   7.1 21.7   2.9
Virginia City 9/3/26 0920 55.8   6.1 37   14 30.2   2.1 12.7   0.1 S | 174 23.0   3.1 S | 178 0.00 4.6   0.1 70.2   2.6 0.00 49.9   2.6 56.6   4.0 23.7   6.5
Six Mile Canyon 9/3/26 0920 65.7   7.5 28   8 31.8   0.3 13.0   11.3 SW | 220 20.0   16.3 S | 185 0.00 11.9   0.2 71.8   3.3 0.00 54.5   0.1 66.3   6.0 20.0   2.9
Mt Rose Highway 9/3/26 0920 51.1   6.4 55   10 35.6   1.9 4.8   1.8 S | 190 14.0   4.0 S | 186 0.00 7.4   0.0 61.1   0.9 0.00 46.4   3.4 52.3   6.4 24.2   10.9
Pleasant Valley 9/3/26 0920 63.6   6.8 32   12 33.5   2.0 15.2   2.3 S | 180 28.7   8.5 SSW | 195 0.00 2.3   0.0 74.2   3.3 0.00 56.1   1.6 64.9   7.4 28.7   0.8
New Washoe City 9/3/26 0920 58.4   3.2 35   12 31.1   4.6 6.1   0.6 SSE | 164 13.5   1.6 S | 169 0.00 3.5   0.0 72.2   1.7 0.00 52.8   0.5 58.6   2.6 14.9   6.3
Franktown Creek 9/3/26 0920 61.3   5.5 34   17 32.6   5.1 10.7   6.2 S | 183 22.7   11.3 S | 188 0.00 7.0   0.0 71.2   1.5 0.00 56.1   2.4 61.9   5.4 32.9   3.6
Musgrove Creek 9/3/26 0920 59.4   6.6 34   20 31.0   5.8 2.7   1.1 NNW | 339 8.2   4.0 W | 262 0.00 10.3   0.1 60.3   0.5 0.00 50.8   1.0 59.8   6.4 16.6   0.2
East Carson 11/23/24 0110 28.6   28.4 - - 4.7   11.0 SW | 220 14.7   10.1 SW | 219 0.02 - 50.9   0.1 0.02 -25.9   79.1 42.9   14.6 16.0   10.7
Kings Canyon 9/3/26 0920 61.1   5.6 35   11 33.4   2.0 6.0   0.1 SSE | 152 17.0   3.9 SSE | 154 0.00 4.1   0.1 67.0   0.8 0.00 54.1   3.1 61.5   5.4 17.0   3.9
Carson City (Voltaire Canyon) 9/3/26 0920 62.9   6.1 35   9 35.0   0.4 15.7   3.0 SSW | 199 29.7   8.6 SSW | 203 0.00 2.8   0.0 77.7   1.5 0.00 53.3   0.4 64.2   6.9 29.7   3.7
Jacks Valley 9/3/26 0920 61.6   5.8 35   10 33.6   1.1 8.5   0.3 W | 263 16.9   1.1 SW | 227 0.00 4.5   0.0 71.9   0.7 0.00 54.3   2.0 62.1   4.4 22.6   9.8
Genoa 9/3/26 0920 64.3   7.0 31   15 33.2   3.7 3.0   1.5 SE | 146 8.7   1.4 NNE | 12 0.00 2.2   0.0 62.9   0.3 0.00 55.3   2.4 64.8   7.0 15.5   4.2
South Genoa (Walleys Hot Springs) 9/3/26 0920 63.8   6.2 33   8 34.6   0.3 6.3   5.4 E | 89 12.8   9.4 E | 100 0.00 5.8   0.8 73.9   0.8 0.00 48.4   5.8 64.2   3.4 23.7   0.5
SW Gardnerville (HWY 88) 9/3/26 0920 62.3   5.1 34   10 33.3   1.9 3.2   4.6 ENE | 64 6.6   5.1 ENE | 62 0.00 2.8   0.1 68.2   1.9 0.00 46.1   5.7 62.6   3.8 10.3   12.7
Sheridan 9/3/26 0920 62.8   6.0 33   11 33.6   1.9 6.0   1.2 ENE | 69 11.2   2.7 ENE | 76 0.00 1.1   0.0 70.2   1.9 0.00 49.0   1.8 63.9   4.0 11.2   11.3
Ruhenstroth 9/3/26 0920 62.1   4.5 23   12 23.4   6.8 15.1   3.1 SSE | 161 23.0   1.9 S | 183 0.00 6.7   0.0 68.6   1.9 0.00 54.3   0.1 62.5   4.7 23.8   4.6
Double Spring 9/3/26 0920 55.9   3.4 36   4 29.2   0.8 3.3   0.0 N | 3 7.3   0.4 N | 2 0.00 24.8   0.4 65.0   2.2 0.00 38.7   0.2 56.1   2.6 13.0   1.7
North Topaz Lake 9/3/26 0920 60.4   3.4 29   4 28.2   0.5 6.3   1.1 WNW | 302 10.8   0.6 WNW | 291 0.00 7.4   0.1 67.4   1.8 0.00 54.5   1.8 61.2   3.5 25.1   7.2
Wild Oat Mountain 9/3/26 0920 58.3   3.7 36   0 31.5   3.6 2.3   8.5 ESE | 118 5.8   13.0 E | 100 0.00 5.6   0.0 66.6   0.5 0.00 52.0   2.2 59.4   3.1 26.0   0.2
Smith Valley 9/3/26 0920 65.4   4.6 27   3 30.6   1.7 3.1   4.3 WNW | 285 7.5   7.4 W | 279 0.00 2.7   0.1 73.8   0.7 0.00 57.2   3.4 66.5   2.4 28.6   1.4
Pine Grove Mountain 9/3/26 0920 52.6   5.3 32   3 23.4   6.6 3.8   1.2 SSW | 203 9.7   1.7 SSE | 148 0.00 6.6   0.3 60.3   1.9 0.00 45.3   1.9 53.7   4.2 20.0   5.1
Paradise Hill 9/3/26 0920 60.9   2.6 36   4 34.2   0.6 4.7   23.9 ESE | 123 7.6   29.2 SE | 126 0.00 9.9   0.2 70.0   2.1 0.00 55.8   1.6 61.9   3.6 19.9   20.0
Winnemucca 9/3/26 0920 62.4   2.6 34   5 33.4   1.0 6.8   3.0 SSW | 211 12.9   3.4 SSW | 196 0.00 5.6   0.1 72.5   2.2 0.00 55.0   3.1 63.1   1.9 12.9   18.4
NE Elko 9/3/26 0920 63.7   1.2 27   6 28.9   7.2 9.1   0.4 SW | 235 14.2   0.5 WSW | 238 0.00 5.6   0.0 68.4   1.6 0.00 52.2   0.1 64.1   4.5 14.2   12.8
North Elko 9/3/26 0920 60.6   0.6 28   7 27.8   7.4 7.6   4.4 S | 189 11.9   4.8 S | 191 0.00 24.6   0.2 70.1   1.5 0.00 53.5   2.9 61.2   3.1 11.9   11.7
South Elko 9/3/26 0920 58.2   2.8 31   7 27.9   3.5 5.4   2.5 SSW | 212 10.1   4.4 WSW | 241 0.00 13.5   0.1 65.0   1.4 0.00 53.6   2.6 - 11.9   5.2
Lamoille 9/3/26 0920 61.4   3.4 31   7 30.4   9.6 12.1   9.0 SW | 235 19.0   13.8 WSW | 237 0.00 6.2   0.1 65.2   0.8 0.00 52.9   1.3 62.3   7.7 19.0   9.0
Reid Gardner Sub 9/3/26 0920 81.2   5.3 19   8 35.3   9.7 2.6   9.1 NNE | 33 6.2   14.3 NNE | 28 0.00 24.2   1.2 85.9   1.7 0.00 64.4   9.5 83.3   3.6 11.6   8.9
Corn Creek 9/3/26 0920 74.7   4.6 24   12 35.7   13.4 9.1   1.1 E | 87 13.3   1.4 ENE | 66 0.00 3.0   0.0 83.9   0.1 0.00 68.6   0.1 76.0   3.8 15.4   1.9
Lucky Strike 9/3/26 0920 66.8   3.1 20   9 24.8   11.8 4.4   0.5 NNE | 18 9.4   1.6 N | 0 0.00 3.1   0.0 78.2   0.2 0.00 62.6   0.9 69.1   2.0 12.3   11.4
Lower Angel Peak 9/3/26 0920 63.8   2.4 20   8 21.6   9.9 3.7   1.5 N | 351 9.3   0.5 NNW | 331 0.00 3.1   0.1 71.4   1.1 0.00 53.6   0.1 65.4   1.9 10.1   8.7
Angel Peak 9/3/26 0920 58.3   1.0 22   14 20.0   22.3 2.5   4.5 ESE | 118 7.1   6.2 E | 89 0.00 2.4   0.1 62.2   0.9 0.00 53.8   3.0 59.5   0.8 16.8   28.4
Upper Kyle Canyon 9/3/26 0920 66.0   6.8 16   8 18.9   19.2 3.0   5.3 NNW | 347 10.6   11.8 E | 92 0.00 7.7   0.0 74.2   0.4 0.00 57.6   1.3 66.7   7.1 32.8   3.7
Mt Charleston 9/3/26 0920 66.1   4.9 17   8 20.2   17.2 3.9   2.5 ESE | 123 12.8   9.7 ESE | 107 0.00 13.2   0.1 67.0   1.7 0.00 58.0   2.0 66.9   5.2 26.8   5.1
Mid Kyle Canyon 9/3/26 0920 66.3   2.7 22   15 26.8   22.9 8.0   3.5 E | 90 14.3   2.2 SE | 144 0.00 5.8   0.0 72.9   0.9 0.00 56.6   0.5 68.4   1.2 15.6   13.8
Blue Diamond 9/3/26 0920 78.1   1.6 18   5 31.4   9.7 6.4   5.5 NW | 305 12.3   6.1 NW | 309 0.00 1.2   0.0 83.1   0.8 0.00 66.9   0.1 79.3   1.8 18.4   5.6
Artesian Sub 9/3/26 0920 84.0   2.3 18   8 35.7   12.5 8.4   0.6 SE | 139 17.4   1.2 SE | 146 0.00 11.8   0.0 93.0   0.6 0.00 76.9   0.7 84.5   2.5 20.7   0.6
North Henderson 9/3/26 0920 85.4   0.4 15   4 33.2   7.5 7.9   2.6 ESE | 122 14.5   4.0 ESE | 121 0.00 10.5   0.1 96.4   1.0 0.00 77.8   2.6 85.9   0.1 22.4   1.6
Sandy Valley 9/3/26 0920 75.8   0.5 28   9 40.0   10.6 5.7   2.5 SSW | 195 9.9   3.6 SSW | 207 0.00 7.8   0.2 83.7   1.2 0.00 69.0   0.8 76.0   0.0 9.9   1.6
Searchlight 9/3/26 0920 77.3   0.5 19   5 31.9   6.8 9.6   1.4 SSE | 156 15.9   4.1 SSE | 154 0.00 5.8   0.2 82.0   1.7 0.00 65.4   0.2 77.7   0.6 16.3   1.6
Laughlin 9/3/26 0920 85.1   2.9 21   1 40.5   0.8 4.1   0.4 S | 171 7.0   0.7 S | 176 0.00 4.4   0.0 98.2   1.1 0.00 77.4   3.1 87.7   4.0 7.0   5.7
31Mission Hills 9/3/26 0920 78.9   2.7 17   6 30.0   9.8 4.5   7.4 SE | 146 8.7   12.4 SSE | 165 0.00 6.4   0.3 82.3   1.5 0.00 74.2   0.6 79.6   2.9 12.5   11.8
32 Enterprise Sierra Cliffs 9/3/26 0920 77.5   1.8 19   9 31.4   15.2 12.0   8.4 S | 188 17.9   10.2 SSW | 204 0.00 1.2   0.0 78.9   0.9 0.00 72.8   0.5 77.8   1.6 26.8   5.6
29 Calico Basin 9/3/26 0920 75.4   1.5 19   10 30.1   17.9 6.0   16.9 NE | 51 9.9   20.4 NE | 42 0.00 2.4   0.0 81.8   0.2 0.00 67.7   1.5 75.8   1.4 25.6   8.1
28 Indian Springs 9/3/26 0920 72.1   3.0 18   7 27.0   8.6 2.0   2.7 NW | 304 4.8   3.8 W | 266 0.00 4.4   0.1 82.4   2.4 0.00 61.6   1.2 72.6   5.5 10.7   15.9
30 Jean 9/3/26 0920 76.0   1.2 19   7 30.5   10.9 15.8   4.0 SSW | 211 21.4   5.6 SSW | 207 0.00 4.9   0.1 80.0   1.7 0.00 65.5   1.9 76.4   1.2 22.7   4.2
VC Highlands NW 9/3/26 0920 55.6   6.5 36   19 29.0   4.6 7.1   6.1 S | 189 16.9   12.7 SSE | 160 0.00 1.5   0.0 60.7   1.4 0.00 48.8   1.8 57.5   8.0 20.1   12.3
Glenbrook-Spooner Summit 9/3/26 0810 49.9   4.8 36   23 24.1   7.8 12.4   5.4 WSW | 255 25.6   9.7 WSW | 252 0.00 7.7   0.1 64.1   0.0 0.00 46.4   4.9 50.1   3.8 25.6   3.5
Hobo Hot Springs 9/3/26 0920 64.6   6.5 30   10 32.2   1.7 13.8   7.5 SSW | 202 22.8   11.3 SSW | 194 0.00 1.0   0.0 66.7   1.8 0.00 49.6   1.1 64.9   5.8 25.5   2.6
Jack Valley Ranch 2 9/3/26 0920 61.6   6.1 33   12 32.2   2.2 9.6   5.0 W | 274 24.1   11.6 WNW | 296 0.00 2.1   0.0 72.4   1.8 0.00 54.1   2.5 62.2   4.5 26.6   8.7
Genoa North 2 9/3/26 0920 63.2   6.4 29   14 30.7   3.9 11.2   5.6 S | 177 24.5   11.5 SSE | 160 0.00 0.7   0.1 70.8   1.5 0.00 53.5   0.2 64.0   6.9 24.5   1.4
Mottsville 2 9/3/26 0920 62.1   4.7 33   10 32.4   2.5 4.9   0.1 NE | 37 10.1   1.0 NE | 39 0.00 1.3   0.0 70.2   1.7 0.00 49.5   3.3 62.5   2.3 13.5   2.9
Kingsbury Village 3 9/3/26 0920 47.8   5.2 47   21 28.4   4.1 4.6   2.6 NW | 319 15.5   7.3 NW | 310 0.00 3.1   0.0 58.8   0.1 0.00 40.4   1.3 48.1   5.4 15.5   1.2
Kingsbury-Benjamin Dr 2 9/3/26 0920 50.0   5.9 41   24 27.2   6.1 3.5   0.9 WSW | 256 14.4   5.5 SW | 222 0.00 3.0   0.1 63.4   1.4 0.00 41.9   1.4 50.3   6.0 21.1   6.4
Smith Valley-Wellington 9/3/26 0920 65.0   3.9 25   2 28.1   1.6 5.6   1.6 SSW | 209 10.7   2.7 SW | 226 0.00 3.5   0.1 78.0   1.5 0.00 57.4   2.6 65.5   3.4 16.9   6.0
Sheridan South 2 9/3/26 0920 61.1   3.9 35   6 33.0   0.7 4.5   5.0 NNE | 27 8.2   6.5 NNE | 17 0.00 0.4   0.0 69.3   1.3 0.00 47.3   1.2 61.6   3.1 13.4   1.4
Silver Springs 9/3/26 0920 65.2   5.1 27   5 30.5   0.6 11.3   0.5 SW | 230 16.9   1.1 WSW | 246 0.00 4.9   0.1 74.8   3.5 0.00 54.2   0.1 65.6   2.9 21.7   17.6
Fernley 9/3/26 0920 65.3   7.3 25   11 28.4   2.9 11.9   8.4 SSW | 209 18.8   13.0 SW | 214 0.00 3.0   0.1 68.4   3.8 0.00 54.0   0.8 65.8   2.2 18.8   8.4
Spanish Springs 9/3/26 0920 62.8   5.8 28   12 29.0   3.8 4.5   3.1 SW | 223 9.7   4.8 SSW | 196 0.00 10.0   0.2 72.4   2.7 0.00 57.4   4.9 63.1   5.9 24.8   3.2
Suttcliffe South 2 9/3/26 0920 64.1   5.6 32   7 33.6   0.2 16.4   4.7 WSW | 247 25.5   9.6 WSW | 242 0.00 4.1   0.2 68.3   0.8 0.00 56.5   8.8 65.0   6.0 35.2   10.6
Lemmon Valley North 9/3/26 0920 57.4   4.6 39   12 32.5   2.5 9.4   3.9 S | 176 18.0   3.8 SSW | 198 0.00 2.0   0.1 69.2   2.2 0.00 48.9   3.2 58.7   5.8 23.8   0.2
Lemmon Valley NW 3 9/3/26 0920 59.3   5.4 36   12 32.2   2.6 4.9   2.1 SW | 227 13.7   0.2 SW | 228 0.00 1.2   0.1 68.5   1.2 0.00 52.8   3.1 59.8   4.9 20.4   2.9
VC Highlands North 9/3/26 0920 55.9   5.0 36   15 29.4   4.2 9.6   7.0 SSW | 210 19.5   14.5 SSW | 208 0.00 4.3   0.2 62.4   0.8 0.00 50.2   7.3 57.1   6.0 21.2   5.6
Upper Voltaire Cyn 9/3/26 0920 58.9   6.0 34   13 30.7   2.7 14.6   7.2 SSW | 211 24.3   9.8 SW | 214 0.00 1.1   0.0 67.1   2.2 0.00 53.5   4.1 59.2   5.9 27.0   3.3
Yerington NW 9/3/26 0920 60.9   0.6 30   4 29.6   2.4 5.7   1.2 SSE | 154 8.1   5.0 SSE | 161 0.00 7.1   0.0 69.8   3.1 0.00 49.5   5.5 63.1   0.7 21.6   8.4
Spanish Springs SW 9/3/26 0920 61.3   4.9 29   12 28.7   4.2 5.5   2.2 S | 188 9.6   4.1 S | 177 0.00 1.3   0.1 70.3   1.2 0.00 56.4   3.5 62.0   4.6 35.2   12.5
Cosgrave 2 8/27/26 0750 62.9   4.1 34   3 33.8   1.4 2.6   0.5 WSW | 246 4.1   1.0 W | 267 0.00 3.8   0.1 77.4   2.9 0.00 62.7   3.3 77.4   3.5 11.2   3.9
Winnemucca-Grass Valley 2 9/3/26 0920 62.1   1.5 36   3 34.8   3.5 7.4   2.5 SSW | 193 11.9   7.6 S | 178 0.00 7.6   0.1 62.4   0.9 0.00 48.9   5.5 62.3   0.2 14.2   6.7
Winnemucca-Dutch Flat Rd 9/3/26 0920 62.0   3.9 30   9 30.4   3.0 9.6   4.4 SW | 230 14.9   8.8 SW | 229 0.00 6.1   0.1 71.0   2.0 0.00 54.3   1.9 62.5   0.4 16.9   13.9
Paradise Valley 2 9/3/26 0920 58.7   0.2 39   3 33.8   1.5 6.2   4.6 S | 170 9.6   10.2 SSE | 155 0.00 12.4   0.3 69.5   1.8 0.00 52.3   0.7 59.0   4.0 9.7   13.8
Golconda 2 9/3/26 0920 61.6   0.5 34   2 33.0   1.9 6.2   9.3 NNW | 348 8.4   14.3 NNW | 346 0.00 1.8   0.1 68.5   2.6 0.00 53.2   2.2 62.6   1.4 11.2   26.1
Battle Mountain - South 9/3/26 0920 63.9   0.5 26   6 28.5   6.4 6.6   1.8 SW | 227 11.9   6.7 WSW | 240 0.00 9.2   0.0 71.0   1.4 0.00 52.1   9.7 64.1   0.7 16.0   2.6
Geiger Summit 9/3/26 0920 54.2   6.6 100   0 54.2   6.6 10.4   2.8 SSW | 205 16.8   4.4 S | 183 0.00 5.9   0.0 57.4   1.9 0.00 47.0   4.2 54.7   7.0 23.8   6.8
Combs Canyon 3 9/3/26 0920 63.9   6.8 29   12 31.4   2.4 6.7   2.6 S | 176 15.6   8.9 SSE | 167 0.00 0.9   0.0 70.8   1.1 0.00 54.2   2.0 64.5   6.9 17.6   7.0
Clear Creek 9/3/26 0920 58.5   5.2 35   13 30.7   3.3 10.5   2.0 S | 188 22.7   4.4 S | 187 0.00 3.4   0.0 68.5   0.5 0.00 53.2   3.2 59.1   5.2 25.6   4.1
Eastlake 2 9/3/26 0920 60.5   3.7 31   11 29.9   4.3 3.0   10.5 E | 83 6.0   14.3 SSE | 150 0.00 3.4   0.0 71.2   0.4 0.00 54.6   2.1 61.2   4.4 21.1   6.6
Lovelock-Colado 2 9/3/26 0920 61.2   0.1 35   4 33.6   3.0 4.4   0.8 W | 264 7.3   1.5 W | 267 0.00 - 71.7   2.1 0.00 54.1   8.5 61.4   0.3 14.2   5.3
Spanish Springs NW 9/3/26 0920 62.7   5.2 29   11 30.4   3.0 5.9   2.4 SW | 214 11.8   5.1 SSW | 204 0.00 12.3   0.2 67.1   1.1 0.00 57.2   4.0 63.0   5.3 21.7   1.1
Battle Mountain NW 9/3/26 0920 63.8   4.6 27   4 29.7   7.5 3.5   1.6 NNE | 12 9.7   6.1 NNE | 17 0.00 8.6   0.2 72.6   3.2 0.00 52.3   3.5 64.4   0.9 16.0   5.7
Austin 2 9/3/26 0820 59.0   3.2 26   1 23.7   3.6 10.1   3.7 WNW | 285 16.2   6.6 WNW | 282 0.00 2.2   0.2 57.3   0.1 0.00 36.8   0.5 59.6   3.5 17.0   5.7
Elko-Osino 9/3/26 0920 63.7   1.1 24   5 26.6   7.0 5.5   5.0 S | 182 10.9   4.6 SSW | 195 0.00 1.4   0.0 71.4   0.8 0.00 52.1   0.2 64.0   0.7 12.2   4.8
Elko-Bill Fishpond 2 9/3/26 0920 62.4   3.2 27   5 27.6   8.2 1.7   3.6 NW | 316 5.6   3.2 NNW | 344 0.00 3.4   0.0 65.0   0.4 0.00 51.7   0.5 62.8   0.8 11.6   6.8
Spring Creek SE 2 9/3/26 0920 63.0   2.2 24   6 26.0   8.0 9.2   4.0 SW | 218 15.9   7.2 SW | 225 0.00 0.2   0.0 65.4   1.2 0.00 51.4   3.2 63.3   1.5 16.4   12.7
Spring Creek NW 9/3/26 0920 61.5   0.6 25   6 25.8   7.3 7.2   0.7 SSW | 211 12.4   1.2 SSW | 213 0.00 2.1   0.1 68.5   1.4 0.00 51.7   1.2 61.9   0.5 12.9   8.4
Elko-Moleen 9/3/26 0920 63.4   1.1 25   6 26.9   8.0 1.9   1.4 SSW | 206 5.1   4.5 SSE | 166 0.00 6.2   0.1 73.4   2.6 0.00 47.3   4.5 64.4   1.2 7.2   14.0
Elko-West 9/3/26 0920 63.2   1.8 25   5 26.9   7.2 4.3   2.3 WSW | 249 9.3   3.9 WSW | 242 0.00 32.8   0.0 64.3   0.4 0.00 45.4   6.1 63.9   2.0 9.3   7.6
Elko-Adobe Creek 9/3/26 0920 56.7   3.0 29   6 25.0   7.7 5.9   2.1 SSW | 211 13.9   0.9 WSW | 240 0.00 18.4   0.1 66.4   1.2 0.00 48.4   2.8 57.2   0.1 14.4   6.2
Tuscarora SW 9/3/26 0920 60.5   2.6 29   7 28.2   8.4 9.8   0.1 SW | 231 16.2   0.5 SW | 215 0.00 6.7   0.1 69.4   2.6 0.00 47.1   4.3 61.2   3.2 16.5   0.9
Elko-Monument Peak 9/3/26 0920 58.9   2.7 28   7 26.3   8.8 10.0   1.1 SSW | 207 17.3   1.4 SSW | 211 0.00 3.6   0.0 66.5   0.9 0.00 44.2   6.9 59.8   1.4 17.4   0.2
Wild Horse 9/3/26 0920 57.4 36 30.4 5.4 SSW | 207 11.7 SSE | 156 0.00 4.4 63.4 0.00 47.7 57.6 21.4
Max     85.4 100 54.2 24.9 - 33.9 - 0.00 43.2 98.2 0.00 77.8 87.7 50.6
Avg     61.8 32 30.8 7.2 - 13.8 - 0.00 7.0 69.8 - - - -
Min     47.0 15 18.9 1.4 - 4.8 - 0.00 0.2 32.0 0.00 36.8 47.2 7.0